sensor_id;sensor_type;location;lat;lon;timestamp;pressure;altitude;pressure_sealevel;temperature;humidity
31761;BME280;18335;51.486;7.562;2023-04-29T00:00:06;99881.16;;;12.31;100.00
31761;BME280;18335;51.486;7.562;2023-04-29T00:02:39;99885.53;;;12.40;100.00
31761;BME280;18335;51.486;7.562;2023-04-29T00:05:06;99891.00;;;12.02;100.00
31761;BME280;18335;51.486;7.562;2023-04-29T00:07:33;99901.38;;;12.07;100.00
31761;BME280;18335;51.486;7.562;2023-04-29T00:10:01;99892.75;;;12.18;100.00
31761;BME280;18335;51.486;7.562;2023-04-29T00:12:29;99897.75;;;11.92;100.00
31761;BME280;18335;51.486;7.562;2023-04-29T00:14:57;99901.00;;;12.10;100.00
31761;BME280;18335;51.486;7.562;2023-04-29T00:17:26;99900.94;;;12.03;100.00
31761;BME280;18335;51.486;7.562;2023-04-29T00:19:53;99898.34;;;12.02;100.00
31761;BME280;18335;51.486;7.562;2023-04-29T00:22:19;99904.94;;;12.15;100.00
31761;BME280;18335;51.486;7.562;2023-04-29T00:24:47;99898.44;;;11.94;100.00
31761;BME280;18335;51.486;7.562;2023-04-29T00:27:13;99900.59;;;11.98;100.00
31761;BME280;18335;51.486;7.562;2023-04-29T00:29:41;99892.56;;;11.74;100.00
31761;BME280;18335;51.486;7.562;2023-04-29T00:32:08;99899.44;;;11.93;100.00
31761;BME280;18335;51.486;7.562;2023-04-29T00:34:36;99908.56;;;11.85;100.00
31761;BME280;18335;51.486;7.562;2023-04-29T00:37:03;99911.25;;;11.93;100.00
31761;BME280;18335;51.486;7.562;2023-04-29T00:39:30;99909.03;;;11.89;100.00
31761;BME280;18335;51.486;7.562;2023-04-29T00:41:56;99916.72;;;11.93;100.00
31761;BME280;18335;51.486;7.562;2023-04-29T00:44:23;99910.16;;;12.02;100.00
31761;BME280;18335;51.486;7.562;2023-04-29T00:46:50;99920.06;;;12.03;100.00
31761;BME280;18335;51.486;7.562;2023-04-29T00:49:17;99923.28;;;11.84;100.00
31761;BME280;18335;51.486;7.562;2023-04-29T00:51:45;99925.72;;;11.79;100.00
31761;BME280;18335;51.486;7.562;2023-04-29T00:54:12;99934.94;;;11.78;100.00
31761;BME280;18335;51.486;7.562;2023-04-29T00:56:39;99936.38;;;11.89;100.00
31761;BME280;18335;51.486;7.562;2023-04-29T00:59:07;99933.72;;;11.81;100.00
31761;BME280;18335;51.486;7.562;2023-04-29T01:01:35;99929.22;;;11.88;100.00
31761;BME280;18335;51.486;7.562;2023-04-29T01:04:03;99936.63;;;11.79;100.00
31761;BME280;18335;51.486;7.562;2023-04-29T01:06:38;99943.50;;;11.67;100.00
31761;BME280;18335;51.486;7.562;2023-04-29T01:09:17;99951.69;;;11.75;100.00
31761;BME280;18335;51.486;7.562;2023-04-29T01:11:54;99951.69;;;11.75;100.00
31761;BME280;18335;51.486;7.562;2023-04-29T01:14:30;99955.47;;;11.66;100.00
31761;BME280;18335;51.486;7.562;2023-04-29T01:17:04;99962.13;;;11.72;100.00
31761;BME280;18335;51.486;7.562;2023-04-29T01:19:38;99960.69;;;11.84;100.00
31761;BME280;18335;51.486;7.562;2023-04-29T01:22:10;99966.72;;;11.71;100.00
31761;BME280;18335;51.486;7.562;2023-04-29T01:24:38;99967.44;;;11.73;100.00
31761;BME280;18335;51.486;7.562;2023-04-29T01:27:11;99972.13;;;11.87;100.00
31761;BME280;18335;51.486;7.562;2023-04-29T01:29:47;99969.66;;;11.70;100.00
31761;BME280;18335;51.486;7.562;2023-04-29T01:32:20;99970.03;;;11.58;100.00
31761;BME280;18335;51.486;7.562;2023-04-29T01:34:53;99965.72;;;11.72;100.00
31761;BME280;18335;51.486;7.562;2023-04-29T01:37:32;99972.53;;;11.68;100.00
31761;BME280;18335;51.486;7.562;2023-04-29T01:40:09;99976.31;;;11.59;100.00
31761;BME280;18335;51.486;7.562;2023-04-29T01:42:54;99978.41;;;11.57;100.00
31761;BME280;18335;51.486;7.562;2023-04-29T01:45:25;99977.03;;;11.61;100.00
31761;BME280;18335;51.486;7.562;2023-04-29T01:47:53;99980.28;;;11.56;100.00
31761;BME280;18335;51.486;7.562;2023-04-29T01:50:21;99974.94;;;11.63;100.00
31761;BME280;18335;51.486;7.562;2023-04-29T01:52:48;99980.28;;;11.56;100.00
31761;BME280;18335;51.486;7.562;2023-04-29T01:55:16;99979.56;;;11.62;100.00
31761;BME280;18335;51.486;7.562;2023-04-29T01:57:51;99980.91;;;11.28;100.00
31761;BME280;18335;51.486;7.562;2023-04-29T02:00:35;99980.88;;;11.44;100.00
31761;BME280;18335;51.486;7.562;2023-04-29T02:03:03;99980.97;;;11.50;100.00
31761;BME280;18335;51.486;7.562;2023-04-29T02:05:39;99982.28;;;11.32;100.00
31761;BME280;18335;51.486;7.562;2023-04-29T02:08:06;99991.34;;;11.63;100.00
31761;BME280;18335;51.486;7.562;2023-04-29T02:10:38;99988.38;;;11.42;100.00
31761;BME280;18335;51.486;7.562;2023-04-29T02:13:20;99995.50;;;11.51;100.00
31761;BME280;18335;51.486;7.562;2023-04-29T02:15:47;99995.19;;;11.46;100.00
31761;BME280;18335;51.486;7.562;2023-04-29T02:18:14;99992.06;;;11.57;100.00
31761;BME280;18335;51.486;7.562;2023-04-29T02:20:41;100000.81;;;11.52;100.00
31761;BME280;18335;51.486;7.562;2023-04-29T02:23:08;100004.34;;;11.14;100.00
31761;BME280;18335;51.486;7.562;2023-04-29T02:25:35;100016.63;;;11.18;100.00
31761;BME280;18335;51.486;7.562;2023-04-29T02:28:04;100010.50;;;11.16;100.00
31761;BME280;18335;51.486;7.562;2023-04-29T02:30:30;100014.00;;;11.41;100.00
31761;BME280;18335;51.486;7.562;2023-04-29T02:32:58;100027.41;;;11.03;100.00
31761;BME280;18335;51.486;7.562;2023-04-29T02:35:25;100028.78;;;10.91;100.00
31761;BME280;18335;51.486;7.562;2023-04-29T02:37:53;100024.38;;;10.58;100.00
31761;BME280;18335;51.486;7.562;2023-04-29T02:40:19;100034.63;;;10.80;100.00
31761;BME280;18335;51.486;7.562;2023-04-29T02:42:46;100032.22;;;10.77;100.00
31761;BME280;18335;51.486;7.562;2023-04-29T02:45:15;100030.00;;;10.73;100.00
31761;BME280;18335;51.486;7.562;2023-04-29T02:47:41;100034.94;;;10.85;100.00
31761;BME280;18335;51.486;7.562;2023-04-29T02:50:27;100035.47;;;10.89;100.00
31761;BME280;18335;51.486;7.562;2023-04-29T02:53:12;100034.59;;;10.88;100.00
31761;BME280;18335;51.486;7.562;2023-04-29T02:55:39;100036.63;;;10.94;100.00
31761;BME280;18335;51.486;7.562;2023-04-29T02:58:08;100044.16;;;10.76;100.00
31761;BME280;18335;51.486;7.562;2023-04-29T03:00:39;100047.56;;;10.86;100.00
31761;BME280;18335;51.486;7.562;2023-04-29T03:03:06;100045.00;;;10.85;100.00
31761;BME280;18335;51.486;7.562;2023-04-29T03:05:33;100049.44;;;10.86;100.00
31761;BME280;18335;51.486;7.562;2023-04-29T03:08:00;100049.28;;;10.79;100.00
31761;BME280;18335;51.486;7.562;2023-04-29T03:10:29;100056.44;;;10.72;100.00
31761;BME280;18335;51.486;7.562;2023-04-29T03:12:56;100060.88;;;10.73;100.00
31761;BME280;18335;51.486;7.562;2023-04-29T03:15:23;100052.69;;;10.73;100.00
31761;BME280;18335;51.486;7.562;2023-04-29T03:17:52;100055.22;;;10.91;100.00
31761;BME280;18335;51.486;7.562;2023-04-29T03:20:20;100059.84;;;10.82;100.00
31761;BME280;18335;51.486;7.562;2023-04-29T03:22:47;100060.03;;;10.81;100.00
31761;BME280;18335;51.486;7.562;2023-04-29T03:25:14;100056.09;;;10.75;100.00
31761;BME280;18335;51.486;7.562;2023-04-29T03:27:40;100060.19;;;10.79;100.00
31761;BME280;18335;51.486;7.562;2023-04-29T03:30:08;100061.88;;;10.72;100.00
31761;BME280;18335;51.486;7.562;2023-04-29T03:32:41;100068.22;;;10.65;100.00
31761;BME280;18335;51.486;7.562;2023-04-29T03:35:09;100061.06;;;10.72;100.00
31761;BME280;18335;51.486;7.562;2023-04-29T03:37:47;100061.91;;;10.88;100.00
31761;BME280;18335;51.486;7.562;2023-04-29T03:40:21;100067.00;;;10.91;100.00
31761;BME280;18335;51.486;7.562;2023-04-29T03:42:49;100063.78;;;10.72;100.00
31761;BME280;18335;51.486;7.562;2023-04-29T03:45:17;100060.03;;;10.65;100.00
31761;BME280;18335;51.486;7.562;2023-04-29T03:47:43;100071.13;;;10.79;100.00
31761;BME280;18335;51.486;7.562;2023-04-29T03:50:12;100073.84;;;10.79;100.00
31761;BME280;18335;51.486;7.562;2023-04-29T03:52:39;100079.63;;;10.76;100.00
31761;BME280;18335;51.486;7.562;2023-04-29T03:55:10;100079.63;;;10.76;100.00
31761;BME280;18335;51.486;7.562;2023-04-29T03:57:38;100079.13;;;10.73;100.00
31761;BME280;18335;51.486;7.562;2023-04-29T04:00:06;100087.50;;;10.63;100.00
31761;BME280;18335;51.486;7.562;2023-04-29T04:02:42;100084.06;;;10.53;100.00
31761;BME280;18335;51.486;7.562;2023-04-29T04:05:11;100085.09;;;10.60;100.00
31761;BME280;18335;51.486;7.562;2023-04-29T04:07:41;100090.38;;;10.53;100.00
31761;BME280;18335;51.486;7.562;2023-04-29T04:10:35;100090.91;;;10.65;100.00
31761;BME280;18335;51.486;7.562;2023-04-29T04:13:07;100100.63;;;10.68;100.00
31761;BME280;18335;51.486;7.562;2023-04-29T04:15:34;100094.97;;;10.61;100.00
31761;BME280;18335;51.486;7.562;2023-04-29T04:18:01;100097.72;;;10.53;100.00
31761;BME280;18335;51.486;7.562;2023-04-29T04:20:30;100105.03;;;10.52;100.00
31761;BME280;18335;51.486;7.562;2023-04-29T04:22:57;100109.31;;;10.63;100.00
31761;BME280;18335;51.486;7.562;2023-04-29T04:25:28;100113.75;;;10.56;100.00
31761;BME280;18335;51.486;7.562;2023-04-29T04:28:03;100120.56;;;10.60;100.00
31761;BME280;18335;51.486;7.562;2023-04-29T04:30:48;100113.75;;;10.80;100.00
31761;BME280;18335;51.486;7.562;2023-04-29T04:33:15;100115.63;;;10.72;100.00
31761;BME280;18335;51.486;7.562;2023-04-29T04:35:46;100118.88;;;10.83;100.00
31761;BME280;18335;51.486;7.562;2023-04-29T04:38:13;100118.69;;;10.61;100.00
31761;BME280;18335;51.486;7.562;2023-04-29T04:40:40;100123.97;;;10.78;100.00
31761;BME280;18335;51.486;7.562;2023-04-29T04:43:20;100126.56;;;10.72;100.00
31761;BME280;18335;51.486;7.562;2023-04-29T04:45:47;100131.78;;;10.49;100.00
31761;BME280;18335;51.486;7.562;2023-04-29T04:48:14;100142.22;;;10.62;100.00
31761;BME280;18335;51.486;7.562;2023-04-29T04:50:42;100137.78;;;10.61;100.00
31761;BME280;18335;51.486;7.562;2023-04-29T04:53:10;100141.22;;;10.63;100.00
31761;BME280;18335;51.486;7.562;2023-04-29T04:55:49;100144.09;;;10.61;100.00
31761;BME280;18335;51.486;7.562;2023-04-29T04:58:17;100155.00;;;10.53;100.00
31761;BME280;18335;51.486;7.562;2023-04-29T05:00:44;100149.53;;;10.53;100.00
31761;BME280;18335;51.486;7.562;2023-04-29T05:03:11;100151.25;;;10.54;100.00
31761;BME280;18335;51.486;7.562;2023-04-29T05:05:38;100154.66;;;10.64;100.00
31761;BME280;18335;51.486;7.562;2023-04-29T05:08:05;100156.72;;;10.78;100.00
31761;BME280;18335;51.486;7.562;2023-04-29T05:10:39;100157.22;;;10.57;100.00
31761;BME280;18335;51.486;7.562;2023-04-29T05:13:06;100146.84;;;10.77;100.00
31761;BME280;18335;51.486;7.562;2023-04-29T05:15:34;100153.66;;;10.73;100.00
31761;BME280;18335;51.486;7.562;2023-04-29T05:18:02;100151.78;;;10.82;100.00
31761;BME280;18335;51.486;7.562;2023-04-29T05:20:29;100159.94;;;10.49;100.00
31761;BME280;18335;51.486;7.562;2023-04-29T05:22:58;100162.19;;;10.70;100.00
31761;BME280;18335;51.486;7.562;2023-04-29T05:25:26;100158.44;;;10.63;100.00
31761;BME280;18335;51.486;7.562;2023-04-29T05:27:55;100151.94;;;10.72;100.00
31761;BME280;18335;51.486;7.562;2023-04-29T05:30:24;100157.78;;;10.77;100.00
31761;BME280;18335;51.486;7.562;2023-04-29T05:32:51;100157.59;;;10.71;100.00
31761;BME280;18335;51.486;7.562;2023-04-29T05:35:20;100165.97;;;10.69;100.00
31761;BME280;18335;51.486;7.562;2023-04-29T05:37:48;100170.72;;;10.75;100.00
31761;BME280;18335;51.486;7.562;2023-04-29T05:40:38;100177.22;;;10.82;100.00
31761;BME280;18335;51.486;7.562;2023-04-29T05:43:26;100177.22;;;10.66;100.00
31761;BME280;18335;51.486;7.562;2023-04-29T05:45:54;100176.88;;;10.77;100.00
31761;BME280;18335;51.486;7.562;2023-04-29T05:48:22;100186.06;;;10.76;100.00
31761;BME280;18335;51.486;7.562;2023-04-29T05:50:50;100187.31;;;10.98;100.00
31761;BME280;18335;51.486;7.562;2023-04-29T05:53:19;100193.59;;;11.15;100.00
31761;BME280;18335;51.486;7.562;2023-04-29T05:55:47;100201.28;;;10.87;100.00
31761;BME280;18335;51.486;7.562;2023-04-29T05:58:15;100199.75;;;11.08;100.00
31761;BME280;18335;51.486;7.562;2023-04-29T06:00:44;100204.69;;;10.89;100.00
31761;BME280;18335;51.486;7.562;2023-04-29T06:03:18;100212.38;;;10.93;100.00
31761;BME280;18335;51.486;7.562;2023-04-29T06:05:49;100220.59;;;11.09;100.00
31761;BME280;18335;51.486;7.562;2023-04-29T06:08:34;100214.41;;;10.91;100.00
31761;BME280;18335;51.486;7.562;2023-04-29T06:11:14;100217.47;;;10.80;100.00
31761;BME280;18335;51.486;7.562;2023-04-29T06:13:41;100226.03;;;11.18;100.00
31761;BME280;18335;51.486;7.562;2023-04-29T06:16:10;100223.63;;;10.90;100.00
31761;BME280;18335;51.486;7.562;2023-04-29T06:18:37;100232.69;;;11.15;100.00
31761;BME280;18335;51.486;7.562;2023-04-29T06:21:04;100236.09;;;11.17;100.00
31761;BME280;18335;51.486;7.562;2023-04-29T06:23:31;100248.03;;;11.08;100.00
31761;BME280;18335;51.486;7.562;2023-04-29T06:26:00;100239.34;;;11.04;100.00
31761;BME280;18335;51.486;7.562;2023-04-29T06:28:27;100248.03;;;10.84;100.00
31761;BME280;18335;51.486;7.562;2023-04-29T06:30:55;100253.88;;;11.05;100.00
31761;BME280;18335;51.486;7.562;2023-04-29T06:33:23;100251.63;;;11.00;100.00
31761;BME280;18335;51.486;7.562;2023-04-29T06:35:51;100250.22;;;10.80;100.00
31761;BME280;18335;51.486;7.562;2023-04-29T06:38:39;100253.50;;;11.00;100.00
31761;BME280;18335;51.486;7.562;2023-04-29T06:41:24;100251.97;;;10.97;100.00
31761;BME280;18335;51.486;7.562;2023-04-29T06:44:17;100251.81;;;10.99;100.00
31761;BME280;18335;51.486;7.562;2023-04-29T06:47:07;100258.13;;;11.07;100.00
31761;BME280;18335;51.486;7.562;2023-04-29T06:50:08;100267.28;;;10.90;100.00
31761;BME280;18335;51.486;7.562;2023-04-29T06:52:35;100274.41;;;10.75;100.00
31761;BME280;18335;51.486;7.562;2023-04-29T06:55:03;100278.06;;;10.84;100.00
31761;BME280;18335;51.486;7.562;2023-04-29T06:57:30;100275.00;;;10.95;100.00
31761;BME280;18335;51.486;7.562;2023-04-29T06:59:57;100287.44;;;10.89;100.00
31761;BME280;18335;51.486;7.562;2023-04-29T07:02:24;100282.66;;;10.83;100.00
31761;BME280;18335;51.486;7.562;2023-04-29T07:04:51;100289.81;;;10.84;100.00
31761;BME280;18335;51.486;7.562;2023-04-29T07:07:20;100289.81;;;10.84;100.00
31761;BME280;18335;51.486;7.562;2023-04-29T07:09:46;100295.78;;;10.80;100.00
31761;BME280;18335;51.486;7.562;2023-04-29T07:12:16;100297.78;;;10.70;100.00
31761;BME280;18335;51.486;7.562;2023-04-29T07:14:43;100305.47;;;10.74;100.00
31761;BME280;18335;51.486;7.562;2023-04-29T07:17:11;100306.25;;;10.59;100.00
31761;BME280;18335;51.486;7.562;2023-04-29T07:19:38;100308.03;;;10.76;100.00
31761;BME280;18335;51.486;7.562;2023-04-29T07:22:05;100323.00;;;10.64;100.00
31761;BME280;18335;51.486;7.562;2023-04-29T07:24:33;100334.59;;;10.32;100.00
31761;BME280;18335;51.486;7.562;2023-04-29T07:27:00;100345.19;;;10.35;100.00
31761;BME280;18335;51.486;7.562;2023-04-29T07:29:28;100341.63;;;10.42;100.00
31761;BME280;18335;51.486;7.562;2023-04-29T07:31:56;100345.13;;;10.52;100.00
31761;BME280;18335;51.486;7.562;2023-04-29T07:34:23;100347.03;;;10.60;100.00
31761;BME280;18335;51.486;7.562;2023-04-29T07:36:49;100342.72;;;10.49;100.00
31761;BME280;18335;51.486;7.562;2023-04-29T07:39:16;100357.56;;;10.55;100.00
31761;BME280;18335;51.486;7.562;2023-04-29T07:41:50;100359.97;;;10.58;100.00
31761;BME280;18335;51.486;7.562;2023-04-29T07:44:17;100359.09;;;10.57;100.00
31761;BME280;18335;51.486;7.562;2023-04-29T07:46:44;100364.25;;;10.61;100.00
31761;BME280;18335;51.486;7.562;2023-04-29T07:49:12;100370.09;;;10.66;100.00
31761;BME280;18335;51.486;7.562;2023-04-29T07:51:40;100377.19;;;10.59;100.00
31761;BME280;18335;51.486;7.562;2023-04-29T07:54:08;100379.38;;;10.55;100.00
31761;BME280;18335;51.486;7.562;2023-04-29T07:56:35;100388.88;;;10.43;100.00
31761;BME280;18335;51.486;7.562;2023-04-29T07:59:03;100397.22;;;10.41;100.00
31761;BME280;18335;51.486;7.562;2023-04-29T08:01:30;100394.72;;;10.48;100.00
31761;BME280;18335;51.486;7.562;2023-04-29T08:03:57;100404.91;;;10.46;100.00
31761;BME280;18335;51.486;7.562;2023-04-29T08:06:25;100409.41;;;10.29;100.00
31761;BME280;18335;51.486;7.562;2023-04-29T08:08:53;100416.78;;;10.37;100.00
31761;BME280;18335;51.486;7.562;2023-04-29T08:11:20;100406.19;;;10.34;100.00
31761;BME280;18335;51.486;7.562;2023-04-29T08:13:49;100417.88;;;10.44;100.00
31761;BME280;18335;51.486;7.562;2023-04-29T08:16:17;100419.91;;;10.42;100.00
31761;BME280;18335;51.486;7.562;2023-04-29T08:18:44;100425.03;;;10.45;100.00
31761;BME280;18335;51.486;7.562;2023-04-29T08:21:10;100422.69;;;10.50;100.00
31761;BME280;18335;51.486;7.562;2023-04-29T08:23:38;100424.28;;;10.61;100.00
31761;BME280;18335;51.486;7.562;2023-04-29T08:26:04;100418.63;;;10.54;100.00
31761;BME280;18335;51.486;7.562;2023-04-29T08:28:31;100419.88;;;10.68;100.00
31761;BME280;18335;51.486;7.562;2023-04-29T08:30:58;100423.53;;;10.50;100.00
31761;BME280;18335;51.486;7.562;2023-04-29T08:33:26;100420.59;;;10.44;100.00
31761;BME280;18335;51.486;7.562;2023-04-29T08:35:57;100426.38;;;10.41;100.00
31761;BME280;18335;51.486;7.562;2023-04-29T08:38:25;100430.50;;;10.45;100.00
31761;BME280;18335;51.486;7.562;2023-04-29T08:40:52;100428.06;;;10.68;100.00
31761;BME280;18335;51.486;7.562;2023-04-29T08:43:21;100429.41;;;10.64;100.00
31761;BME280;18335;51.486;7.562;2023-04-29T08:45:48;100442.91;;;10.65;100.00
31761;BME280;18335;51.486;7.562;2023-04-29T08:48:16;100438.63;;;10.63;100.00
31761;BME280;18335;51.486;7.562;2023-04-29T08:50:44;100441.81;;;10.58;100.00
31761;BME280;18335;51.486;7.562;2023-04-29T08:53:12;100439.94;;;10.84;100.00
31761;BME280;18335;51.486;7.562;2023-04-29T08:55:40;100453.50;;;10.68;100.00
31761;BME280;18335;51.486;7.562;2023-04-29T08:58:08;100453.19;;;10.71;100.00
31761;BME280;18335;51.486;7.562;2023-04-29T09:00:36;100454.41;;;10.51;100.00
31761;BME280;18335;51.486;7.562;2023-04-29T09:03:11;100452.81;;;10.66;100.00
31761;BME280;18335;51.486;7.562;2023-04-29T09:05:40;100458.31;;;10.74;100.00
31761;BME280;18335;51.486;7.562;2023-04-29T09:08:10;100447.78;;;10.87;100.00
31761;BME280;18335;51.486;7.562;2023-04-29T09:10:41;100446.78;;;10.88;100.00
31761;BME280;18335;51.486;7.562;2023-04-29T09:13:08;100452.47;;;10.95;100.00
31761;BME280;18335;51.486;7.562;2023-04-29T09:15:35;100451.03;;;10.83;100.00
31761;BME280;18335;51.486;7.562;2023-04-29T09:18:05;100451.78;;;10.67;100.00
31761;BME280;18335;51.486;7.562;2023-04-29T09:20:31;100459.44;;;10.89;100.00
31761;BME280;18335;51.486;7.562;2023-04-29T09:23:00;100457.25;;;11.01;100.00
31761;BME280;18335;51.486;7.562;2023-04-29T09:25:29;100468.09;;;11.19;100.00
31761;BME280;18335;51.486;7.562;2023-04-29T09:27:56;100465.19;;;11.20;100.00
31761;BME280;18335;51.486;7.562;2023-04-29T09:30:23;100463.00;;;11.24;100.00
31761;BME280;18335;51.486;7.562;2023-04-29T09:33:04;100464.84;;;11.23;100.00
31761;BME280;18335;51.486;7.562;2023-04-29T09:35:32;100471.19;;;11.24;100.00
31761;BME280;18335;51.486;7.562;2023-04-29T09:38:10;100476.91;;;11.04;100.00
31761;BME280;18335;51.486;7.562;2023-04-29T09:40:39;100478.50;;;11.23;100.00
31761;BME280;18335;51.486;7.562;2023-04-29T09:43:14;100483.06;;;11.40;100.00
31761;BME280;18335;51.486;7.562;2023-04-29T09:45:43;100485.25;;;11.37;100.00
31761;BME280;18335;51.486;7.562;2023-04-29T09:48:11;100488.69;;;11.47;100.00
31761;BME280;18335;51.486;7.562;2023-04-29T09:50:40;100484.44;;;11.94;100.00
31761;BME280;18335;51.486;7.562;2023-04-29T09:53:09;100477.91;;;11.95;100.00
31761;BME280;18335;51.486;7.562;2023-04-29T09:55:57;100470.06;;;12.49;100.00
31761;BME280;18335;51.486;7.562;2023-04-29T09:58:26;100463.13;;;13.09;100.00
31761;BME280;18335;51.486;7.562;2023-04-29T10:00:57;100474.09;;;13.09;100.00
31761;BME280;18335;51.486;7.562;2023-04-29T10:03:27;100476.50;;;12.88;100.00
31761;BME280;18335;51.486;7.562;2023-04-29T10:05:57;100472.91;;;12.96;100.00
31761;BME280;18335;51.486;7.562;2023-04-29T10:08:25;100474.91;;;13.18;100.00
31761;BME280;18335;51.486;7.562;2023-04-29T10:10:58;100471.00;;;13.04;100.00
31761;BME280;18335;51.486;7.562;2023-04-29T10:13:26;100477.00;;;13.16;100.00
31761;BME280;18335;51.486;7.562;2023-04-29T10:15:59;100479.53;;;13.17;100.00
31761;BME280;18335;51.486;7.562;2023-04-29T10:18:34;100482.31;;;13.09;100.00
31761;BME280;18335;51.486;7.562;2023-04-29T10:21:02;100477.03;;;13.08;100.00
31761;BME280;18335;51.486;7.562;2023-04-29T10:23:30;100476.19;;;13.38;100.00
31761;BME280;18335;51.486;7.562;2023-04-29T10:25:59;100483.66;;;13.60;100.00
31761;BME280;18335;51.486;7.562;2023-04-29T10:28:30;100483.28;;;13.63;100.00
31761;BME280;18335;51.486;7.562;2023-04-29T10:31:00;100482.38;;;14.02;100.00
31761;BME280;18335;51.486;7.562;2023-04-29T10:33:30;100481.09;;;14.12;100.00
31761;BME280;18335;51.486;7.562;2023-04-29T10:36:00;100470.84;;;14.29;100.00
31761;BME280;18335;51.486;7.562;2023-04-29T10:38:30;100476.41;;;14.44;100.00
31761;BME280;18335;51.486;7.562;2023-04-29T10:41:21;100473.78;;;14.27;100.00
31761;BME280;18335;51.486;7.562;2023-04-29T10:43:50;100479.03;;;13.92;100.00
31761;BME280;18335;51.486;7.562;2023-04-29T10:46:18;100469.31;;;13.81;100.00
31761;BME280;18335;51.486;7.562;2023-04-29T10:48:46;100479.91;;;13.84;100.00
31761;BME280;18335;51.486;7.562;2023-04-29T10:51:27;100477.88;;;14.09;100.00
31761;BME280;18335;51.486;7.562;2023-04-29T10:54:00;100481.81;;;14.52;100.00
31761;BME280;18335;51.486;7.562;2023-04-29T10:56:42;100483.84;;;14.58;100.00
31761;BME280;18335;51.486;7.562;2023-04-29T10:59:11;100478.13;;;14.45;100.00
31761;BME280;18335;51.486;7.562;2023-04-29T11:01:43;100479.75;;;14.31;100.00
31761;BME280;18335;51.486;7.562;2023-04-29T11:04:10;100490.25;;;14.27;100.00
31761;BME280;18335;51.486;7.562;2023-04-29T11:06:39;100487.88;;;14.47;100.00
31761;BME280;18335;51.486;7.562;2023-04-29T11:09:08;100490.88;;;14.60;100.00
31761;BME280;18335;51.486;7.562;2023-04-29T11:11:45;100489.69;;;14.32;100.00
31761;BME280;18335;51.486;7.562;2023-04-29T11:14:13;100490.81;;;14.46;100.00
31761;BME280;18335;51.486;7.562;2023-04-29T11:16:48;100500.13;;;14.14;100.00
31761;BME280;18335;51.486;7.562;2023-04-29T11:19:16;100494.00;;;14.04;100.00
31761;BME280;18335;51.486;7.562;2023-04-29T11:21:44;100496.41;;;14.29;100.00
31761;BME280;18335;51.486;7.562;2023-04-29T11:24:12;100489.50;;;14.93;100.00
31761;BME280;18335;51.486;7.562;2023-04-29T11:26:42;100493.56;;;14.83;100.00
31761;BME280;18335;51.486;7.562;2023-04-29T11:29:09;100504.66;;;14.89;100.00
31761;BME280;18335;51.486;7.562;2023-04-29T11:31:36;100498.16;;;15.05;100.00
31761;BME280;18335;51.486;7.562;2023-04-29T11:34:04;100497.72;;;14.93;100.00
31761;BME280;18335;51.486;7.562;2023-04-29T11:36:31;100498.31;;;14.89;100.00
31761;BME280;18335;51.486;7.562;2023-04-29T11:38:59;100497.94;;;14.92;100.00
31761;BME280;18335;51.486;7.562;2023-04-29T11:41:26;100499.28;;;14.96;100.00
31761;BME280;18335;51.486;7.562;2023-04-29T11:43:58;100502.47;;;14.85;100.00
31761;BME280;18335;51.486;7.562;2023-04-29T11:46:29;100512.81;;;14.98;100.00
31761;BME280;18335;51.486;7.562;2023-04-29T11:48:57;100496.25;;;15.35;100.00
31761;BME280;18335;51.486;7.562;2023-04-29T11:51:24;100508.09;;;15.06;100.00
31761;BME280;18335;51.486;7.562;2023-04-29T11:53:52;100507.06;;;15.22;100.00
31761;BME280;18335;51.486;7.562;2023-04-29T11:56:20;100502.69;;;15.27;100.00
31761;BME280;18335;51.486;7.562;2023-04-29T11:58:48;100509.94;;;15.58;100.00
31761;BME280;18335;51.486;7.562;2023-04-29T12:01:18;100503.84;;;15.47;100.00
31761;BME280;18335;51.486;7.562;2023-04-29T12:03:47;100516.72;;;15.18;100.00
31761;BME280;18335;51.486;7.562;2023-04-29T12:06:14;100509.06;;;14.76;100.00
31761;BME280;18335;51.486;7.562;2023-04-29T12:08:41;100505.75;;;14.66;100.00
31761;BME280;18335;51.486;7.562;2023-04-29T12:11:08;100503.22;;;14.42;100.00
31761;BME280;18335;51.486;7.562;2023-04-29T12:13:35;100511.44;;;14.42;100.00
31761;BME280;18335;51.486;7.562;2023-04-29T12:16:02;100509.34;;;14.44;100.00
31761;BME280;18335;51.486;7.562;2023-04-29T12:18:32;100518.91;;;14.33;100.00
31761;BME280;18335;51.486;7.562;2023-04-29T12:20:59;100515.69;;;14.21;100.00
31761;BME280;18335;51.486;7.562;2023-04-29T12:23:27;100515.22;;;14.40;100.00
31761;BME280;18335;51.486;7.562;2023-04-29T12:25:55;100519.47;;;14.43;100.00
31761;BME280;18335;51.486;7.562;2023-04-29T12:28:22;100525.69;;;14.14;100.00
31761;BME280;18335;51.486;7.562;2023-04-29T12:30:51;100524.81;;;14.45;100.00
31761;BME280;18335;51.486;7.562;2023-04-29T12:33:18;100526.13;;;14.49;100.00
31761;BME280;18335;51.486;7.562;2023-04-29T12:35:48;100524.47;;;14.39;100.00
31761;BME280;18335;51.486;7.562;2023-04-29T12:38:19;100527.44;;;14.38;100.00
31761;BME280;18335;51.486;7.562;2023-04-29T12:40:46;100526.09;;;14.03;100.00
31761;BME280;18335;51.486;7.562;2023-04-29T12:43:13;100526.75;;;14.05;100.00
31761;BME280;18335;51.486;7.562;2023-04-29T12:45:40;100526.03;;;14.11;100.00
31761;BME280;18335;51.486;7.562;2023-04-29T12:48:07;100527.63;;;14.28;100.00
31761;BME280;18335;51.486;7.562;2023-04-29T12:50:36;100529.88;;;14.25;100.00
31761;BME280;18335;51.486;7.562;2023-04-29T12:53:06;100527.22;;;14.39;100.00
31761;BME280;18335;51.486;7.562;2023-04-29T12:55:34;100524.81;;;14.45;100.00